Notice: iconv(): Detected an illegal character in input string in /home/meteolat/www/weather28/wsLangFunctions.php on line 115

Notice: iconv(): Detected an illegal character in input string in /home/meteolat/www/weather28/wsLangFunctions.php on line 115
Météorologique de l'aéroport - Météo La Turballe
Orages Valable du: 25-07-2021 16:40 Au: 26-07-2021 15:00 Avertissement pour: Orages Niveau: Jaune info button

d'avertissement pour Orages more information blitzortung!


Visitez nos sites météorologiques autres:

Template documentation
and downloads

And another site



Rapports METAR proximité

   
EHVK - Volkel Rnlafb, Netherlands
Distance: SO 18 km
Mise à jour: 25-07-2021 23:25
Nuageux  
Nuageux  
   Vent: Est 7.4 km/h
Vent: Est 7.4 km/h
Température: 17°C
Point de rosée: 16°C
Humidité: 94%
Baromètre: 1009 hPa
Nuageux: Nuageux
visibilité: More than 10 km
Détails des nuages: Nuageux 5900 ft,
Nuageux 11000 ft
EHVK 252125Z AUTO 08004KT 9999 BKN059 OVC110 17/16 Q1009 BLU
EDLV - Niederrhein, Germany
Distance: SE 25 km
Mise à jour: 25-07-2021 23:20
Claires  
Claires  
   Vent: varie 3.7 km/h
Vent: varie 3.7 km/h
Température: 18°C
Point de rosée: 17°C
Humidité: 94%
Baromètre: 1009 hPa
visibilité: More than 10 km
Détails des nuages: Claires
EDLV 252120Z VRB02KT CAVOK 18/17 Q1009
EHDL - Deelen Rnlafb, Netherlands
Distance: N 35 km
Mise à jour: 25-07-2021 23:25
Nuageux  
Nuageux  
   Vent: ESE 5.6 km/h
Vent: ESE 5.6 km/h
Température: 18°C
Point de rosée: 17°C
Humidité: 94%
Baromètre: 1009 hPa
Nuageux: Nuageux
visibilité: More than 10 km
Détails des nuages: Nuageux 9700 ft,
Nuageux 10000 ft
EHDL 252125Z AUTO 11003KT 360V120 9999 BKN097 OVC100 18/17 Q1009 BLU
EHEH - Eindhoven Rnlafb, Netherlands
Distance: SO 48 km
Mise à jour: 25-07-2021 23:25
Nuageux  
Nuageux  
   Vent: SO 5.6 km/h
Vent: SO 5.6 km/h
Température: 18°C
Point de rosée: 17°C
Humidité: 94%
Baromètre: 1008 hPa
Nuageux: Nuageux
visibilité: More than 10 km
Détails des nuages: Nuageux 26000 ft
EHEH 252125Z AUTO 23003KT 170V280 9999 OVC260 18/17 Q1008 BLU TEMPO VRB10G24KT 4000 SHRA SCT020CB BKN035
EHGR - Gilze-Rijen Rnla, Netherlands
Distance: OSO 70 km
Mise à jour: 25-07-2021 23:25
Nuageux  
Nuageux  
   Vent: North 9.3 km/h
Vent: North 9.3 km/h
Température: 18°C
Point de rosée: 16°C
Humidité: 88%
Baromètre: 1008 hPa
Nuageux: Nuageux
visibilité: More than 10 km
Détails des nuages: Nuageux 10000 ft,
Nuageux 29000 ft
EHGR 252125Z AUTO 36005KT 290V040 9999 BKN100 OVC290 18/16 Q1008 RETS BLU
EBBL - Kleine-Brogel(Ba, Belgium
Distance: SSO 71 km
Mise à jour: 25-07-2021 23:25
Claires  
Claires  
   Vent: varie 3.7 km/h
Vent: varie 3.7 km/h
Température: 18°C
Point de rosée: 16°C
Humidité: 88%
Baromètre: 1009 hPa
Nuageux: Claires
visibilité: More than 10 km
Détails des nuages: Claires
EBBL 252125Z AUTO VRB02KT 9999 NCD 18/16 Q1009 BLU

Script développé par  Saratoga-weather.org Adapté pour le modèle par  Weerstation Leuven

Équipement que nous utilisons:

Station de Météo
Davis VUE

Davis VUE